Village of Lakewood, Illinois
Current Conditions -  °F | °C
As of 2:52 PM on Sunday 23 Nov 2014 (Local Time) from KDPA Reporting Station
Light Rain Light Rain  
Wind Chill: 51°   Ceiling: 1000
Heat Index: 51°   Visibility: 7mi
Dew Point: 48°   Wind: 12mph
Humidity: 89%   Direction: 160°SSE
Pressure: 29.47"   Gusts: NA
Location:  42.2284°N, 88.3202°W
Report Text: KDPA 232052Z 16010KT 7SM -RA BKN010 OVC016 11/09 A2947 RMK AO2 RAE00B19 SLP981 P0000 60001 T01060089 56045
Loading
Personal Weather Stations






























Interactive Weather Map New forecast layout! Learn more

10-Day Weather Forecast

Advertisements
Track Severe Weather on mobile